createdAt,value
2023-11-20T00:01:25.111Z,9.21
2023-11-20T00:03:53.557Z,9.31
2023-11-20T00:06:22.038Z,9.33
2023-11-20T00:08:50.398Z,9.32
2023-11-20T00:11:20.033Z,9.34
2023-11-20T00:13:48.269Z,9.38
2023-11-20T00:16:16.606Z,9.48
2023-11-20T00:18:44.972Z,9.28
2023-11-20T00:21:13.736Z,9.33
2023-11-20T00:23:41.933Z,9.40
2023-11-20T00:26:12.647Z,9.38
2023-11-20T00:28:43.817Z,9.37
2023-11-20T00:31:15.921Z,9.38
2023-11-20T00:33:45.581Z,9.42
2023-11-20T00:36:14.131Z,9.47
2023-11-20T00:38:42.374Z,9.46
2023-11-20T00:41:11.623Z,9.46
2023-11-20T00:43:40.618Z,9.40
2023-11-20T00:46:10.699Z,9.49
2023-11-20T00:48:38.960Z,9.48
2023-11-20T00:51:07.337Z,9.51
2023-11-20T00:53:35.608Z,9.51
2023-11-20T00:56:03.964Z,9.40
2023-11-20T00:58:32.202Z,9.28
2023-11-20T01:01:00.767Z,9.37
2023-11-20T01:03:30.706Z,9.36
2023-11-20T01:06:00.447Z,9.35
2023-11-20T01:08:28.638Z,9.31
2023-11-20T01:10:56.839Z,9.38
2023-11-20T01:13:25.054Z,9.27
2023-11-20T01:15:53.595Z,9.36
2023-11-20T01:18:21.858Z,9.37
2023-11-20T01:20:51.458Z,9.41
2023-11-20T01:23:19.643Z,9.41
2023-11-20T01:25:47.848Z,9.41
2023-11-20T01:28:16.300Z,9.34
2023-11-20T01:30:44.846Z,9.49
2023-11-20T01:33:15.536Z,9.44
2023-11-20T01:35:47.789Z,9.45
2023-11-20T01:38:18.788Z,9.41
2023-11-20T01:40:53.808Z,9.36
2023-11-20T01:43:22.270Z,9.31
2023-11-20T01:45:50.815Z,9.40
2023-11-20T01:48:20.995Z,9.42
2023-11-20T01:50:49.218Z,9.32
2023-11-20T01:53:18.745Z,9.28
2023-11-20T01:55:47.053Z,9.25
2023-11-20T01:58:15.515Z,9.29
2023-11-20T02:00:44.010Z,9.36
2023-11-20T02:03:13.323Z,9.23
2023-11-20T02:05:41.539Z,9.32
2023-11-20T02:08:09.853Z,9.30
2023-11-20T02:10:39.379Z,9.23
2023-11-20T02:13:07.726Z,9.40
2023-11-20T02:15:36.197Z,9.38
2023-11-20T02:18:04.694Z,9.33
2023-11-20T02:20:32.946Z,9.30
2023-11-20T02:23:01.456Z,9.28
2023-11-20T02:25:29.807Z,9.34
2023-11-20T02:28:13.192Z,9.27
2023-11-20T02:30:42.931Z,9.27
2023-11-20T02:33:11.131Z,9.30
2023-11-20T02:35:39.324Z,9.25
2023-11-20T02:38:08.384Z,9.22
2023-11-20T02:40:36.567Z,9.17
2023-11-20T02:43:04.912Z,9.23
2023-11-20T02:45:33.952Z,9.14
2023-11-20T02:48:05.119Z,9.07
2023-11-20T02:50:35.488Z,9.13
2023-11-20T02:53:03.698Z,9.20
2023-11-20T02:55:32.384Z,9.26
2023-11-20T02:58:00.844Z,9.22
2023-11-20T03:00:29.389Z,9.26
2023-11-20T03:02:57.677Z,9.22
2023-11-20T03:05:27.207Z,9.24
2023-11-20T03:07:55.395Z,9.24
2023-11-20T03:10:23.631Z,9.28
2023-11-20T03:12:51.980Z,9.24
2023-11-20T03:15:22.579Z,9.23
2023-11-20T03:17:51.256Z,9.22
2023-11-20T03:20:19.615Z,9.29
2023-11-20T03:22:49.146Z,9.26
2023-11-20T03:25:17.341Z,9.25
2023-11-20T03:27:45.569Z,9.25
2023-11-20T03:30:14.473Z,9.32
2023-11-20T03:32:42.932Z,9.27
2023-11-20T03:35:11.287Z,9.29
2023-11-20T03:37:39.567Z,9.22
2023-11-20T03:40:10.746Z,9.24
2023-11-20T03:42:39.029Z,9.20
2023-11-20T03:45:08.370Z,9.16
2023-11-20T03:47:36.669Z,9.07
2023-11-20T03:50:05.957Z,9.21
2023-11-20T03:52:34.245Z,9.20
2023-11-20T03:55:02.454Z,9.14
2023-11-20T03:57:32.143Z,9.25
2023-11-20T04:00:00.424Z,9.17
2023-11-20T04:02:28.784Z,9.16
2023-11-20T04:04:59.489Z,9.17
2023-11-20T04:07:27.903Z,9.15
2023-11-20T04:09:56.164Z,9.23
2023-11-20T04:12:25.501Z,9.29
2023-11-20T04:14:55.078Z,9.36
2023-11-20T04:17:23.465Z,9.29
2023-11-20T04:19:54.196Z,9.24
2023-11-20T04:22:23.482Z,9.16
2023-11-20T04:24:52.008Z,9.16
2023-11-20T04:27:20.510Z,9.22
2023-11-20T04:29:49.713Z,9.23
2023-11-20T04:32:19.337Z,9.16
2023-11-20T04:34:47.589Z,9.29
2023-11-20T04:37:16.256Z,9.32
2023-11-20T04:39:44.528Z,9.35
2023-11-20T04:42:16.624Z,9.31
2023-11-20T04:44:44.846Z,9.29
2023-11-20T04:47:13.014Z,9.24
2023-11-20T04:49:42.536Z,9.30
2023-11-20T04:52:10.964Z,9.30
2023-11-20T04:54:39.209Z,9.36
2023-11-20T04:57:10.675Z,9.34
2023-11-20T04:59:39.378Z,9.33
2023-11-20T05:02:07.612Z,9.36
2023-11-20T05:04:35.810Z,9.21
2023-11-20T05:07:05.651Z,9.29
2023-11-20T05:09:34.141Z,9.33
2023-11-20T05:12:04.786Z,9.30
2023-11-20T05:14:33.056Z,9.41
2023-11-20T05:17:01.288Z,9.27
2023-11-20T05:19:29.478Z,9.28
2023-11-20T05:21:57.714Z,9.28
2023-11-20T05:24:27.336Z,9.34
2023-11-20T05:26:55.530Z,9.34
2023-11-20T05:29:23.745Z,9.26
2023-11-20T05:31:52.050Z,9.33
2023-11-20T05:34:20.329Z,9.32
2023-11-20T05:36:48.759Z,9.28
2023-11-20T05:39:19.407Z,9.28
2023-11-20T05:41:48.998Z,9.28
2023-11-20T05:44:17.577Z,9.22
2023-11-20T05:46:45.825Z,9.20
2023-11-20T05:49:14.287Z,9.23
2023-11-20T05:51:43.509Z,9.32
2023-11-20T05:54:11.741Z,9.29
2023-11-20T05:56:40.289Z,9.24
2023-11-20T05:59:11.539Z,9.27
2023-11-20T06:01:40.278Z,9.35
2023-11-20T06:04:10.934Z,9.48
2023-11-20T06:06:39.905Z,9.50
2023-11-20T06:09:11.570Z,9.30
2023-11-20T06:11:40.274Z,9.24
2023-11-20T06:14:10.457Z,9.36
2023-11-20T06:16:38.705Z,9.31
2023-11-20T06:19:07.038Z,9.24
2023-11-20T06:21:35.386Z,9.33
2023-11-20T06:24:03.750Z,9.40
2023-11-20T06:26:31.932Z,9.41
2023-11-20T06:29:00.119Z,9.36
2023-11-20T06:31:29.854Z,9.33
2023-11-20T06:33:58.157Z,9.34
2023-11-20T06:36:26.406Z,9.32
2023-11-20T06:38:54.828Z,9.34
2023-11-20T06:41:23.734Z,9.48
2023-11-20T06:43:51.967Z,9.54
2023-11-20T06:46:22.758Z,9.57
2023-11-20T06:48:52.800Z,9.53
2023-11-20T06:51:21.070Z,9.38
2023-11-20T06:53:49.370Z,9.53
2023-11-20T06:56:18.516Z,9.61
2023-11-20T06:58:47.874Z,9.53
2023-11-20T07:01:18.843Z,9.56
2023-11-20T07:03:47.719Z,9.66
2023-11-20T07:06:20.384Z,9.72
2023-11-20T07:08:50.220Z,9.65
2023-11-20T07:11:18.481Z,9.58
2023-11-20T07:13:46.659Z,9.61
2023-11-20T07:16:16.180Z,9.67
2023-11-20T07:18:44.564Z,9.74
2023-11-20T07:21:12.812Z,9.64
2023-11-20T07:23:42.409Z,9.66
2023-11-20T07:26:10.656Z,9.74
2023-11-20T07:28:38.846Z,10.06
2023-11-20T07:31:09.289Z,10.09
2023-11-20T07:33:38.096Z,10.29
2023-11-20T07:36:07.076Z,10.33
2023-11-20T07:38:35.632Z,10.01
2023-11-20T07:41:05.616Z,10.08
2023-11-20T07:43:34.421Z,10.10
2023-11-20T07:46:02.813Z,9.98
2023-11-20T07:48:33.125Z,9.95
2023-11-20T07:51:01.420Z,9.96
2023-11-20T07:53:29.985Z,9.94
2023-11-20T07:55:58.594Z,9.97
2023-11-20T07:58:28.348Z,9.89
2023-11-20T08:00:56.779Z,9.94
2023-11-20T08:03:25.015Z,9.91
2023-11-20T08:05:54.141Z,9.80
2023-11-20T08:08:24.951Z,9.79
2023-11-20T08:10:53.159Z,9.96
2023-11-20T08:13:22.403Z,9.90
2023-11-20T08:15:52.029Z,9.99
2023-11-20T08:18:20.278Z,9.96
2023-11-20T08:20:49.605Z,10.07
2023-11-20T08:23:17.943Z,9.96
2023-11-20T08:25:46.291Z,10.04
2023-11-20T08:28:14.600Z,10.05
2023-11-20T08:30:43.031Z,10.22
2023-11-20T08:33:12.659Z,10.09
2023-11-20T08:35:40.954Z,10.11
2023-11-20T08:38:09.167Z,10.17
2023-11-20T08:40:37.374Z,10.05
2023-11-20T08:43:07.085Z,10.09
2023-11-20T08:45:35.344Z,10.26
2023-11-20T08:48:06.634Z,10.18
2023-11-20T08:50:36.322Z,10.16
2023-11-20T08:53:04.725Z,10.25
2023-11-20T08:55:32.925Z,10.17
2023-11-20T08:58:01.307Z,10.20
2023-11-20T09:00:29.727Z,10.16
2023-11-20T09:02:59.452Z,10.16
2023-11-20T09:05:28.473Z,10.11
2023-11-20T09:07:59.158Z,10.17
2023-11-20T09:10:28.537Z,10.12
2023-11-20T09:12:56.795Z,10.20
2023-11-20T09:15:25.859Z,10.17
2023-11-20T09:17:54.114Z,10.20
2023-11-20T09:20:25.582Z,10.23
2023-11-20T09:22:53.846Z,10.30
2023-11-20T09:25:23.604Z,10.28
2023-11-20T09:27:51.865Z,10.30
2023-11-20T09:30:21.770Z,10.20
2023-11-20T09:32:50.016Z,10.34
2023-11-20T09:35:21.722Z,10.36
2023-11-20T09:37:49.963Z,10.40
2023-11-20T09:40:18.475Z,10.49
2023-11-20T09:42:48.197Z,10.46
2023-11-20T09:45:28.201Z,10.46
2023-11-20T09:47:57.467Z,10.49
2023-11-20T09:50:29.748Z,10.40
2023-11-20T09:52:58.602Z,10.32
2023-11-20T09:55:27.621Z,10.37
2023-11-20T09:57:57.347Z,10.49
2023-11-20T10:00:26.500Z,10.38
2023-11-20T10:02:55.628Z,10.47
2023-11-20T10:05:34.732Z,10.60
2023-11-20T10:08:04.745Z,10.67
2023-11-20T10:10:36.220Z,10.72
2023-11-20T10:13:09.724Z,10.66
2023-11-20T10:15:38.622Z,10.71
2023-11-20T10:18:07.454Z,10.77
2023-11-20T10:20:49.992Z,10.85
2023-11-20T10:23:18.368Z,10.98
2023-11-20T10:25:47.232Z,11.05
2023-11-20T10:28:17.130Z,10.74
2023-11-20T10:30:46.592Z,10.87
2023-11-20T10:33:19.572Z,10.87
2023-11-20T10:35:48.582Z,10.86
2023-11-20T10:38:17.036Z,10.83
2023-11-20T10:40:46.611Z,10.65
2023-11-20T10:43:16.298Z,10.75
2023-11-20T10:45:44.852Z,10.79
2023-11-20T10:48:14.147Z,10.66
2023-11-20T10:50:45.387Z,10.63
2023-11-20T10:53:19.010Z,10.69
2023-11-20T10:55:51.547Z,10.94
2023-11-20T10:58:21.400Z,10.94
2023-11-20T11:00:50.939Z,10.95
2023-11-20T11:03:20.515Z,11.03
2023-11-20T11:05:52.864Z,11.12
2023-11-20T11:08:22.313Z,11.14
2023-11-20T11:10:51.074Z,11.14
2023-11-20T11:13:24.350Z,11.06
2023-11-20T11:15:54.702Z,11.04
2023-11-20T11:18:28.864Z,11.20
2023-11-20T11:20:58.288Z,11.43
2023-11-20T11:23:30.149Z,11.40
2023-11-20T11:26:11.838Z,11.44
2023-11-20T11:28:43.583Z,11.45
2023-11-20T11:31:16.266Z,11.32
2023-11-20T11:34:07.689Z,11.28
2023-11-20T11:36:46.792Z,11.33
2023-11-20T11:39:20.773Z,11.23
2023-11-20T11:41:59.714Z,11.11
2023-11-20T11:44:52.186Z,11.01
2023-11-20T11:47:20.471Z,10.98
2023-11-20T11:49:50.364Z,10.82
2023-11-20T11:52:27.922Z,10.93
2023-11-20T11:55:20.882Z,11.08
2023-11-20T11:57:53.720Z,10.85
2023-11-20T12:00:23.610Z,10.78
2023-11-20T12:02:56.958Z,10.85
2023-11-20T12:05:26.053Z,10.71
2023-11-20T12:07:56.074Z,10.86
2023-11-20T12:10:44.665Z,10.93
2023-11-20T12:13:13.518Z,10.87
2023-11-20T12:15:44.956Z,11.03
2023-11-20T12:18:15.214Z,11.09
2023-11-20T12:21:00.207Z,11.18
2023-11-20T12:23:29.991Z,11.24
2023-11-20T12:25:59.267Z,11.24
2023-11-20T12:28:30.459Z,11.37
2023-11-20T12:31:05.160Z,11.48
2023-11-20T12:33:34.354Z,11.52
2023-11-20T12:36:03.435Z,11.57
2023-11-20T12:38:33.099Z,11.78
2023-11-20T12:41:05.066Z,11.61
2023-11-20T12:43:34.875Z,12.02
2023-11-20T12:46:05.835Z,11.86
2023-11-20T12:48:36.829Z,11.71
2023-11-20T12:51:07.616Z,11.71
2023-11-20T12:53:38.425Z,11.69
2023-11-20T12:56:08.998Z,11.36
2023-11-20T12:58:37.549Z,11.39
2023-11-20T13:01:07.986Z,11.26
2023-11-20T13:03:37.326Z,11.49
2023-11-20T13:06:11.367Z,11.46
2023-11-20T13:08:40.940Z,11.38
2023-11-20T13:11:12.529Z,11.29
2023-11-20T13:13:43.634Z,11.29
2023-11-20T13:16:18.565Z,11.21
2023-11-20T13:18:48.371Z,11.16
2023-11-20T13:21:23.798Z,11.07
2023-11-20T13:24:00.037Z,11.06
2023-11-20T13:26:28.290Z,11.02
2023-11-20T13:28:58.633Z,10.90
2023-11-20T13:31:38.188Z,10.89
2023-11-20T13:34:08.664Z,10.94
2023-11-20T13:36:39.239Z,10.92
2023-11-20T13:39:09.585Z,10.96
2023-11-20T13:41:38.654Z,10.95
2023-11-20T13:44:09.692Z,10.93
2023-11-20T13:46:43.169Z,11.10
2023-11-20T13:49:12.558Z,11.00
2023-11-20T13:51:40.863Z,10.98
2023-11-20T13:54:11.392Z,10.93
2023-11-20T13:56:40.199Z,10.80
2023-11-20T13:59:09.813Z,10.83
2023-11-20T14:01:40.953Z,10.73
2023-11-20T14:04:12.081Z,10.82
2023-11-20T14:06:41.598Z,10.84
2023-11-20T14:09:09.977Z,10.83
2023-11-20T14:11:38.209Z,10.80
2023-11-20T14:14:06.651Z,10.77
2023-11-20T14:16:35.095Z,10.83
2023-11-20T14:19:05.409Z,10.74
2023-11-20T14:21:34.934Z,10.66
2023-11-20T14:24:03.369Z,10.62
2023-11-20T14:26:34.941Z,10.68
2023-11-20T14:29:04.388Z,10.74
2023-11-20T14:31:33.082Z,10.63
2023-11-20T14:34:01.568Z,10.53
2023-11-20T14:36:31.206Z,10.50
2023-11-20T14:38:59.915Z,10.61
2023-11-20T14:41:29.320Z,10.61
2023-11-20T14:43:57.813Z,10.69
2023-11-20T14:46:26.614Z,10.70
2023-11-20T14:48:55.096Z,10.68
2023-11-20T14:51:23.372Z,10.71
2023-11-20T14:53:53.285Z,10.61
2023-11-20T14:56:22.287Z,10.41
2023-11-20T14:58:51.412Z,10.33
2023-11-20T15:01:20.939Z,10.09
2023-11-20T15:03:49.710Z,10.00
2023-11-20T15:06:18.952Z,9.94
2023-11-20T15:08:47.698Z,9.98
2023-11-20T15:11:17.522Z,10.16
2023-11-20T15:13:46.000Z,10.27
2023-11-20T15:16:14.288Z,10.13
2023-11-20T15:18:42.617Z,10.18
2023-11-20T15:21:10.863Z,10.33
2023-11-20T15:23:39.109Z,10.28
2023-11-20T15:26:07.504Z,10.26
2023-11-20T15:28:37.040Z,10.09
2023-11-20T15:31:06.387Z,10.05
2023-11-20T15:33:34.849Z,9.99
2023-11-20T15:36:03.410Z,10.02
2023-11-20T15:38:31.601Z,10.17
2023-11-20T15:40:59.793Z,9.73
2023-11-20T15:43:28.060Z,9.52
2023-11-20T15:45:57.849Z,9.47
2023-11-20T15:48:26.074Z,9.70
2023-11-20T15:50:54.398Z,9.91
2023-11-20T15:53:23.345Z,9.88
2023-11-20T15:55:51.985Z,9.92
2023-11-20T15:58:20.378Z,9.97
2023-11-20T16:00:48.697Z,9.59
2023-11-20T16:03:19.617Z,9.64
2023-11-20T16:05:48.450Z,9.70
2023-11-20T16:08:16.856Z,9.79
2023-11-20T16:10:45.171Z,9.77
2023-11-20T16:13:13.584Z,9.57
2023-11-20T16:15:45.868Z,9.36
2023-11-20T16:18:15.101Z,9.47
2023-11-20T16:20:45.598Z,9.50
2023-11-20T16:23:14.286Z,9.37
2023-11-20T16:25:47.639Z,9.56
2023-11-20T16:28:16.988Z,9.71
2023-11-20T16:30:48.832Z,9.73
2023-11-20T16:33:17.506Z,9.68
2023-11-20T16:35:47.316Z,9.55
2023-11-20T16:38:15.503Z,9.83
2023-11-20T16:40:43.990Z,9.82
2023-11-20T16:43:12.627Z,9.89
2023-11-20T16:45:40.884Z,9.87
2023-11-20T16:48:09.679Z,9.87
2023-11-20T16:50:37.909Z,9.72
2023-11-20T16:53:07.398Z,9.70
2023-11-20T16:55:35.762Z,9.74
2023-11-20T16:58:04.316Z,9.65
2023-11-20T17:00:33.269Z,9.49
2023-11-20T17:03:02.387Z,9.51
2023-11-20T17:05:32.375Z,9.36
2023-11-20T17:08:00.631Z,9.13
2023-11-20T17:10:33.569Z,9.26
2023-11-20T17:13:01.849Z,9.36
2023-11-20T17:15:30.294Z,9.64
2023-11-20T17:17:58.561Z,9.77
2023-11-20T17:20:26.860Z,9.75
2023-11-20T17:22:55.078Z,9.86
2023-11-20T17:25:24.131Z,9.85
2023-11-20T17:27:54.011Z,9.79
2023-11-20T17:30:24.565Z,9.80
2023-11-20T17:32:52.896Z,9.77
2023-11-20T17:35:23.170Z,9.87
2023-11-20T17:37:52.245Z,9.90
2023-11-20T17:40:23.516Z,9.90
2023-11-20T17:42:54.650Z,9.74
2023-11-20T17:45:22.940Z,9.69
2023-11-20T17:47:51.520Z,9.87
2023-11-20T17:50:20.051Z,9.67
2023-11-20T17:52:48.934Z,9.70
2023-11-20T17:55:19.574Z,9.75
2023-11-20T17:57:47.901Z,9.82
2023-11-20T18:00:19.360Z,9.63
2023-11-20T18:02:47.929Z,9.37
2023-11-20T18:05:16.568Z,9.47
2023-11-20T18:07:45.121Z,9.59
2023-11-20T18:10:13.725Z,9.55
2023-11-20T18:12:42.447Z,9.31
2023-11-20T18:15:12.890Z,9.29
2023-11-20T18:17:43.198Z,9.43
2023-11-20T18:20:14.183Z,9.49
2023-11-20T18:22:44.254Z,9.67
2023-11-20T18:25:13.106Z,9.42
2023-11-20T18:27:42.167Z,9.54
2023-11-20T18:30:12.251Z,9.57
2023-11-20T18:32:42.690Z,9.63
2023-11-20T18:35:11.667Z,9.62
2023-11-20T18:37:41.220Z,9.75
2023-11-20T18:40:15.001Z,9.61
2023-11-20T18:42:45.404Z,9.68
2023-11-20T18:45:14.862Z,9.73
2023-11-20T18:47:47.819Z,9.63
2023-11-20T18:50:16.615Z,9.59
2023-11-20T18:52:45.561Z,9.69
2023-11-20T18:55:14.355Z,9.67
2023-11-20T18:57:45.475Z,9.74
2023-11-20T19:00:17.142Z,9.75
2023-11-20T19:02:47.786Z,9.58
2023-11-20T19:05:16.082Z,9.49
2023-11-20T19:07:44.927Z,9.53
2023-11-20T19:10:14.163Z,9.49
2023-11-20T19:12:45.768Z,9.29
2023-11-20T19:15:14.462Z,9.46
2023-11-20T19:17:43.700Z,9.57
2023-11-20T19:20:15.954Z,9.62
2023-11-20T19:22:45.219Z,9.57
2023-11-20T19:25:15.412Z,9.53
2023-11-20T19:27:44.441Z,9.26
2023-11-20T19:30:17.844Z,9.35
2023-11-20T19:32:47.987Z,9.27
2023-11-20T19:35:18.545Z,9.20
2023-11-20T19:37:47.034Z,9.16
2023-11-20T19:40:16.346Z,9.17
2023-11-20T19:42:44.700Z,9.11
2023-11-20T19:45:14.327Z,9.17
2023-11-20T19:47:42.948Z,9.16
2023-11-20T19:50:12.523Z,9.21
2023-11-20T19:52:43.126Z,9.15
2023-11-20T19:55:11.929Z,9.34
2023-11-20T19:57:41.102Z,9.41
2023-11-20T20:00:13.309Z,9.35
2023-11-20T20:02:43.274Z,9.57
2023-11-20T20:05:13.408Z,9.70
2023-11-20T20:07:43.177Z,9.67
2023-11-20T20:10:11.584Z,9.68
2023-11-20T20:12:39.936Z,9.58
2023-11-20T20:15:09.293Z,9.44
2023-11-20T20:17:37.948Z,9.45
2023-11-20T20:20:08.167Z,9.66
2023-11-20T20:22:37.138Z,9.55
2023-11-20T20:25:07.882Z,9.34
2023-11-20T20:27:36.168Z,9.27
2023-11-20T20:30:05.081Z,9.36
2023-11-20T20:32:33.337Z,9.52
2023-11-20T20:35:01.715Z,9.35
2023-11-20T20:37:30.097Z,9.46
2023-11-20T20:39:58.415Z,9.64
2023-11-20T20:42:28.145Z,9.51
2023-11-20T20:44:56.504Z,9.42
2023-11-20T20:47:25.156Z,9.43
2023-11-20T20:49:53.965Z,9.45
2023-11-20T20:52:22.282Z,9.42
2023-11-20T20:54:50.929Z,9.50
2023-11-20T20:57:21.927Z,9.59
2023-11-20T20:59:51.647Z,9.34
2023-11-20T21:02:20.037Z,9.15
2023-11-20T21:04:48.919Z,9.28
2023-11-20T21:07:17.201Z,9.41
2023-11-20T21:09:46.216Z,9.46
2023-11-20T21:12:14.600Z,9.28
2023-11-20T21:14:43.142Z,9.37
2023-11-20T21:17:14.177Z,9.18
2023-11-20T21:19:42.443Z,9.18
2023-11-20T21:22:10.953Z,9.21
2023-11-20T21:24:39.215Z,9.21
2023-11-20T21:27:07.479Z,9.17
2023-11-20T21:29:35.683Z,9.36
2023-11-20T21:32:05.313Z,9.40
2023-11-20T21:34:34.880Z,9.20
2023-11-20T21:37:03.150Z,9.05
2023-11-20T21:39:31.507Z,9.07
2023-11-20T21:42:00.222Z,9.07
2023-11-20T21:44:28.515Z,9.01
2023-11-20T21:46:57.757Z,9.03
2023-11-20T21:49:26.205Z,9.00
2023-11-20T21:51:56.594Z,9.03
2023-11-20T21:54:24.834Z,8.92
2023-11-20T21:56:53.042Z,8.95
2023-11-20T21:59:21.259Z,8.95
2023-11-20T22:01:49.906Z,8.77
2023-11-20T22:04:19.673Z,8.61
2023-11-20T22:06:48.966Z,8.41
2023-11-20T22:09:18.575Z,8.30
2023-11-20T22:11:47.403Z,8.25
2023-11-20T22:14:15.692Z,8.18
2023-11-20T22:16:43.999Z,8.19
2023-11-20T22:19:12.751Z,8.26
2023-11-20T22:21:41.073Z,8.33
2023-11-20T22:24:10.651Z,8.30
2023-11-20T22:26:40.406Z,8.07
2023-11-20T22:29:08.646Z,8.18
2023-11-20T22:31:36.944Z,8.07
2023-11-20T22:34:05.194Z,8.01
2023-11-20T22:36:33.413Z,8.05
2023-11-20T22:39:01.613Z,7.88
2023-11-20T22:41:29.979Z,8.06
2023-11-20T22:43:59.596Z,7.81
2023-11-20T22:46:27.868Z,7.83
2023-11-20T22:48:56.164Z,7.89
2023-11-20T22:51:26.923Z,7.68
2023-11-20T22:53:56.310Z,7.62
2023-11-20T22:56:24.560Z,7.66
2023-11-20T22:58:52.753Z,7.71
2023-11-20T23:01:22.557Z,7.46
2023-11-20T23:03:51.543Z,7.48
2023-11-20T23:06:19.871Z,7.30
2023-11-20T23:08:48.088Z,7.24
2023-11-20T23:11:16.287Z,7.36
2023-11-20T23:13:44.524Z,7.40
2023-11-20T23:16:15.081Z,7.29
2023-11-20T23:18:46.036Z,7.18
2023-11-20T23:21:15.493Z,7.36
2023-11-20T23:23:44.341Z,6.97
2023-11-20T23:26:12.777Z,6.92
2023-11-20T23:28:41.131Z,6.72
2023-11-20T23:31:10.519Z,6.54
2023-11-20T23:33:38.909Z,6.54
2023-11-20T23:36:10.493Z,6.42
2023-11-20T23:38:38.811Z,6.43
2023-11-20T23:41:07.420Z,6.25
2023-11-20T23:43:35.708Z,6.25
2023-11-20T23:46:04.045Z,6.14
2023-11-20T23:48:32.263Z,6.21
2023-11-20T23:51:02.511Z,6.01
2023-11-20T23:53:32.193Z,6.15
2023-11-20T23:56:00.419Z,6.08
2023-11-20T23:58:29.355Z,6.28
